Pilot Hill, California
Current Conditions -  °F | °C
As of 2:55 PM on Tuesday 21 Oct 2014 (Local Time) from KAUN Reporting Station
Clear Clear  
Wind Chill: 64°   Ceiling: Unl
Heat Index: 64°   Visibility: 10mi
Dew Point: 45°   Wind: 6mph
Humidity: 49%   Direction: 310°NW
Pressure: 30.03"   Gusts: NA
Location:  38.83°N, 121.02°W
Report Text: KAUN 212155Z AUTO 31005KT 10SM CLR 18/07 A3003 RMK AO1
Loading
Personal Weather Stations






























Interactive Weather Map
Tropical Storm Tracking
New forecast layout! Learn more

10-Day Weather Forecast

Advertisements
Track Severe Weather on mobile